Terminal Aerodrome Forecast
Issued by NWS

Home | Current Version | Previous Version | Text Only | Print | Product List | Glossary On
Versions: 1 2 3 4 5 6 7 8 9 10 11 12 13 14
000
FTUS43 KBIS 301732
TAFJMS
TAF
KJMS 301732Z 3018/0118 10007KT P6SM SCT080 BKN150
     FM301900 12008KT P6SM VCSH SCT050 BKN100 OVC150
     FM010300 11004KT P6SM -SHRA VCTS BKN050CB OVC070
     FM011200 06006KT 5SM BR VCSH BKN035 OVC050=

USA.gov is the U.S. government's official web portal to all federal, state and local government web resources and services.